Time;durP1;ratioP1;P1;durP2;ratioP2;P2;SDS_P1;SDS_P2;PMS_P1;PMS_P2;Temp;Humidity;BMP_temperature;BMP_pressure;BME280_temperature;BME280_humidity;BME280_pressure;Samples;Min_cycle;Max_cycle;Signal;HPM_P1;HPM_P2
2023/07/16 00:01:53;;;;;;;;;;;;;;;18.41;100.00;100830.00;10443583;28;19924;-62
2023/07/16 00:06:56;;;;;;;;;;;;;;;18.27;100.00;100837.41;10461277;28;19939;-61
2023/07/16 00:11:58;;;;;;;;;;;;;;;18.41;100.00;100833.53;10461060;28;19932;-62
2023/07/16 00:17:00;;;;;;;;;;;;;;;18.53;100.00;100839.53;10460810;28;19925;-61
2023/07/16 00:22:03;;;;;;;;;;;;;;;18.62;100.00;100838.69;10460498;28;19925;-62
2023/07/16 00:27:05;;;;;;;;;;;;;;;18.64;100.00;100836.72;10441827;28;19928;-61
2023/07/16 00:32:07;;;;;;;;;;;;;;;18.48;100.00;100834.63;10442764;28;20015;-62
2023/07/16 00:37:10;;;;;;;;;;;;;;;18.24;100.00;100828.88;10442295;28;20291;-63
2023/07/16 00:42:12;;;;;;;;;;;;;;;18.18;100.00;100830.28;10460209;28;19924;-63
2023/07/16 00:47:14;;;;;;;;;;;;;;;18.11;100.00;100834.47;10425654;28;19925;-63
2023/07/16 00:52:17;;;;;;;;;;;;;;;17.92;100.00;100837.88;10459896;28;19925;-62
2023/07/16 00:57:19;;;;;;;;;;;;;;;18.00;100.00;100830.09;10441414;28;19995;-62
2023/07/16 01:02:22;;;;;;;;;;;;;;;17.80;100.00;100843.25;10459055;28;19925;-62
2023/07/16 01:07:24;;;;;;;;;;;;;;;17.72;100.00;100845.72;10458672;28;19925;-61
2023/07/16 01:12:27;;;;;;;;;;;;;;;17.49;100.00;100847.72;10441203;28;19931;-62
2023/07/16 01:17:29;;;;;;;;;;;;;;;17.49;100.00;100850.38;10440726;28;20314;-62
2023/07/16 01:22:31;;;;;;;;;;;;;;;17.43;100.00;100853.53;10458109;28;19964;-62
2023/07/16 01:28:03;;;;;;;;;;;;;;;17.08;100.00;100854.72;10458149;28;19925;-62
2023/07/16 01:33:05;;;;;;;;;;;;;;;16.84;100.00;100847.00;10421473;28;20308;-63
2023/07/16 01:38:09;;;;;;;;;;;;;;;16.93;100.00;100846.28;10439267;28;19979;-63
2023/07/16 01:43:11;;;;;;;;;;;;;;;16.95;100.00;100840.84;10457579;28;19931;-62
2023/07/16 01:48:33;;;;;;;;;;;;;;;16.69;100.00;100843.81;10457165;28;20376;-62
2023/07/16 01:53:35;;;;;;;;;;;;;;;16.89;100.00;100845.69;10457182;28;19935;-62
2023/07/16 01:58:37;;;;;;;;;;;;;;;16.48;100.00;100838.50;10457231;28;19929;-62
2023/07/16 02:03:40;;;;;;;;;;;;;;;16.77;100.00;100830.78;10457048;28;19931;-62
2023/07/16 02:08:42;;;;;;;;;;;;;;;16.85;100.00;100833.69;10456939;28;19968;-63
2023/07/16 02:13:44;;;;;;;;;;;;;;;16.65;100.00;100837.09;10457062;28;19925;-62
2023/07/16 02:18:46;;;;;;;;;;;;;;;16.51;100.00;100844.38;10439455;28;19962;-62
2023/07/16 02:23:49;;;;;;;;;;;;;;;16.57;100.00;100848.31;10456680;28;19996;-62
2023/07/16 02:28:51;;;;;;;;;;;;;;;16.64;100.00;100840.69;10456272;28;19998;-62
2023/07/16 02:33:53;;;;;;;;;;;;;;;16.70;100.00;100848.16;10456819;28;19931;-62
2023/07/16 02:38:55;;;;;;;;;;;;;;;16.68;100.00;100865.94;10456241;28;19929;-62
2023/07/16 02:44:01;;;;;;;;;;;;;;;16.53;100.00;100855.66;10456374;28;19925;-62
2023/07/16 02:49:04;;;;;;;;;;;;;;;16.50;100.00;100861.19;10460520;28;20437;-62
2023/07/16 02:54:06;;;;;;;;;;;;;;;16.54;100.00;100853.84;10463958;28;19931;-62
2023/07/16 02:59:09;;;;;;;;;;;;;;;16.67;100.00;100859.78;10446078;28;20298;-62
2023/07/16 03:04:11;;;;;;;;;;;;;;;16.74;100.00;100854.84;10463710;28;19931;-62
2023/07/16 03:09:13;;;;;;;;;;;;;;;16.64;100.00;100859.22;10445623;28;20279;-62
2023/07/16 03:14:15;;;;;;;;;;;;;;;16.78;100.00;100860.72;10463141;28;19939;-62
2023/07/16 03:19:18;;;;;;;;;;;;;;;16.71;100.00;100871.81;10463097;28;19931;-62
2023/07/16 03:24:20;;;;;;;;;;;;;;;16.57;100.00;100865.97;10462951;28;19933;-62
2023/07/16 03:29:22;;;;;;;;;;;;;;;16.71;100.00;100873.63;10462525;28;20382;-62
2023/07/16 03:34:24;;;;;;;;;;;;;;;16.52;100.00;100871.63;10462799;28;19924;-62
2023/07/16 03:39:27;;;;;;;;;;;;;;;16.56;100.00;100877.50;10444688;28;20003;-62
2023/07/16 03:44:29;;;;;;;;;;;;;;;16.45;100.00;100886.31;10462293;28;19968;-63
2023/07/16 03:49:31;;;;;;;;;;;;;;;16.65;100.00;100890.81;10444245;28;19925;-62
2023/07/16 03:54:34;;;;;;;;;;;;;;;16.46;100.00;100890.63;10444081;28;19925;-62
2023/07/16 03:59:36;;;;;;;;;;;;;;;16.50;100.00;100905.28;10460524;28;20023;-62
2023/07/16 04:04:38;;;;;;;;;;;;;;;16.60;100.00;100905.38;10461398;28;19936;-62
2023/07/16 04:09:40;;;;;;;;;;;;;;;16.19;100.00;100930.66;10461235;28;19924;-62
2023/07/16 04:14:43;;;;;;;;;;;;;;;16.45;100.00;100913.56;10460790;28;19925;-62
2023/07/16 04:19:45;;;;;;;;;;;;;;;16.25;100.00;100914.31;10460686;28;20322;-62
2023/07/16 04:24:47;;;;;;;;;;;;;;;16.67;100.00;100923.22;10460623;28;19925;-63
2023/07/16 04:29:49;;;;;;;;;;;;;;;16.18;100.00;100924.53;10460173;28;20279;-61
2023/07/16 04:34:51;;;;;;;;;;;;;;;16.16;100.00;100937.84;10460057;28;19931;-62
2023/07/16 04:39:54;;;;;;;;;;;;;;;16.19;100.00;100946.50;10459924;28;19931;-62
2023/07/16 04:44:56;;;;;;;;;;;;;;;16.09;100.00;100946.41;10460013;28;19929;-62
2023/07/16 04:49:59;;;;;;;;;;;;;;;16.05;100.00;100951.06;10459461;28;20291;-61
2023/07/16 04:55:01;;;;;;;;;;;;;;;15.94;100.00;100957.19;10459331;28;20009;-63
2023/07/16 05:00:05;;;;;;;;;;;;;;;16.23;100.00;100966.44;10441607;28;19931;-62
2023/07/16 05:05:08;;;;;;;;;;;;;;;15.92;100.00;100974.09;10458968;28;19971;-62
2023/07/16 05:10:10;;;;;;;;;;;;;;;15.82;100.00;100984.53;10458324;28;20359;-61
2023/07/16 05:15:13;;;;;;;;;;;;;;;15.96;100.00;100976.38;10459074;28;19925;-62
2023/07/16 05:20:15;;;;;;;;;;;;;;;15.96;100.00;100986.94;10458343;28;20007;-62
2023/07/16 05:25:17;;;;;;;;;;;;;;;15.87;100.00;100992.09;10458234;28;19924;-62
2023/07/16 05:30:19;;;;;;;;;;;;;;;15.77;100.00;100986.69;10457949;28;19924;-62
2023/07/16 05:35:22;;;;;;;;;;;;;;;15.90;100.00;100998.00;10440150;28;20366;-62
2023/07/16 05:40:24;;;;;;;;;;;;;;;15.96;100.00;100996.69;10457572;28;19925;-62
2023/07/16 05:45:26;;;;;;;;;;;;;;;15.82;100.00;101007.44;10457491;28;20019;-62
2023/07/16 05:50:28;;;;;;;;;;;;;;;16.04;100.00;101009.28;10457291;28;19925;-62
2023/07/16 05:55:31;;;;;;;;;;;;;;;16.04;100.00;101014.56;10457143;28;20011;-62
2023/07/16 06:00:33;;;;;;;;;;;;;;;15.79;100.00;101014.66;10457195;28;19931;-62
2023/07/16 06:05:36;;;;;;;;;;;;;;;16.15;100.00;101014.56;10456864;28;19932;-62
2023/07/16 06:10:39;;;;;;;;;;;;;;;16.33;100.00;101015.78;10456665;28;20260;-62
2023/07/16 06:15:41;;;;;;;;;;;;;;;16.49;100.00;100998.72;10456697;28;19948;-62
2023/07/16 06:20:44;;;;;;;;;;;;;;;16.75;100.00;101014.31;10456609;28;20295;-62
2023/07/16 06:25:49;;;;;;;;;;;;;;;17.01;96.30;101015.75;10464386;28;19975;-60
2023/07/16 06:30:52;;;;;;;;;;;;;;;16.64;99.60;101012.53;10447216;28;19960;-60
2023/07/16 06:35:54;;;;;;;;;;;;;;;16.65;96.04;101012.41;10464939;28;19925;-60
2023/07/16 06:40:56;;;;;;;;;;;;;;;16.95;97.88;101021.53;10447030;28;19929;-60
2023/07/16 06:45:58;;;;;;;;;;;;;;;17.00;94.73;101024.63;10464667;28;19925;-60
2023/07/16 06:51:01;;;;;;;;;;;;;;;16.93;96.22;101028.75;10464187;28;19925;-60
2023/07/16 06:56:03;;;;;;;;;;;;;;;17.14;92.44;101027.97;10463998;28;19925;-62
2023/07/16 07:01:05;;;;;;;;;;;;;;;17.30;94.27;101043.41;10464050;28;19931;-60
2023/07/16 07:06:10;;;;;;;;;;;;;;;17.33;88.55;101035.22;10446241;28;19979;-61
2023/07/16 07:11:12;;;;;;;;;;;;;;;17.39;89.26;101040.03;10463577;28;20272;-61
2023/07/16 07:16:15;;;;;;;;;;;;;;;17.46;85.26;101039.38;10445462;28;20367;-61
2023/07/16 07:21:17;;;;;;;;;;;;;;;17.83;85.55;101036.28;10463048;28;19924;-61
2023/07/16 07:26:19;;;;;;;;;;;;;;;18.35;84.73;101049.59;10462970;28;19925;-61
2023/07/16 07:31:22;;;;;;;;;;;;;;;18.60;82.28;101054.59;10462587;28;19925;-61
2023/07/16 07:36:24;;;;;;;;;;;;;;;18.95;80.46;101048.84;10462295;28;19932;-61
2023/07/16 07:41:26;;;;;;;;;;;;;;;19.14;74.92;101055.16;10462377;28;19928;-61
2023/07/16 07:46:28;;;;;;;;;;;;;;;19.73;75.44;101067.47;10462293;28;19925;-61
2023/07/16 07:51:30;;;;;;;;;;;;;;;19.84;73.72;101067.34;10444200;28;19960;-61
2023/07/16 07:56:33;;;;;;;;;;;;;;;19.35;72.97;101069.16;10461603;28;19924;-61
2023/07/16 08:01:35;;;;;;;;;;;;;;;19.90;71.70;101091.69;10461448;28;20390;-62
2023/07/16 08:06:38;;;;;;;;;;;;;;;20.18;71.03;101080.16;10461180;28;19972;-60
2023/07/16 08:11:40;;;;;;;;;;;;;;;20.82;70.78;101083.03;10460929;28;19931;-61
2023/07/16 08:16:42;;;;;;;;;;;;;;;20.46;68.44;101090.00;10443193;28;19925;-61
2023/07/16 08:21:45;;;;;;;;;;;;;;;21.28;69.32;101083.88;10460579;28;20299;-61
2023/07/16 08:26:47;;;;;;;;;;;;;;;20.42;67.40;101094.78;10460488;28;19924;-61
2023/07/16 08:31:50;;;;;;;;;;;;;;;20.58;66.89;101096.84;10460129;28;20386;-61
2023/07/16 08:36:52;;;;;;;;;;;;;;;21.06;67.38;101089.59;10460138;28;19925;-61
2023/07/16 08:41:54;;;;;;;;;;;;;;;22.24;63.61;101093.84;10459882;28;19925;-63
2023/07/16 08:46:57;;;;;;;;;;;;;;;22.32;64.59;101103.72;10459232;28;19928;-67
2023/07/16 08:51:59;;;;;;;;;;;;;;;22.06;62.18;101098.38;10459280;28;19924;-63
2023/07/16 08:57:01;;;;;;;;;;;;;;;21.75;64.29;101112.13;10441664;28;19925;-63
2023/07/16 09:02:04;;;;;;;;;;;;;;;21.68;63.91;101111.06;10459199;28;19931;-60
2023/07/16 09:07:06;;;;;;;;;;;;;;;22.08;65.62;101109.72;10441781;28;19964;-61
2023/07/16 09:12:12;;;;;;;;;;;;;;;21.33;65.15;101118.88;10458404;28;20367;-61
2023/07/16 09:17:14;;;;;;;;;;;;;;;22.30;64.63;101121.72;10458488;28;19925;-60
2023/07/16 09:22:17;;;;;;;;;;;;;;;22.49;61.01;101112.66;10440522;28;19951;-61
2023/07/16 09:27:21;;;;;;;;;;;;;;;23.04;62.21;101121.25;10465383;22;19924;-61
2023/07/16 09:32:32;;;;;;;;;;;;;;;23.33;60.11;101110.16;10458442;28;19960;-61
2023/07/16 09:37:34;;;;;;;;;;;;;;;22.50;63.47;101129.53;10457963;28;19925;-61
2023/07/16 09:42:36;;;;;;;;;;;;;;;23.52;61.81;101133.09;10457507;28;19947;-61
2023/07/16 09:47:39;;;;;;;;;;;;;;;23.09;59.04;101133.16;10457612;28;19931;-60
2023/07/16 09:52:42;;;;;;;;;;;;;;;22.13;63.79;101128.75;10457190;28;19964;-60
2023/07/16 09:57:44;;;;;;;;;;;;;;;24.05;62.94;101136.31;10456203;28;20272;-61
2023/07/16 10:02:46;;;;;;;;;;;;;;;23.43;61.72;101140.22;10455845;28;19924;-61
2023/07/16 10:07:51;;;;;;;;;;;;;;;23.18;59.68;101155.38;10456851;28;19947;-61
2023/07/16 10:13:01;;;;;;;;;;;;;;;23.07;61.73;101143.16;10457228;28;19924;-60
2023/07/16 10:18:03;;;;;;;;;;;;;;;23.50;58.82;101153.78;10456656;28;20023;-61
2023/07/16 10:23:12;;;;;;;;;;;;;;;23.72;60.50;101158.50;10456887;28;19925;-61
2023/07/16 10:28:15;;;;;;;;;;;;;;;23.60;58.80;101167.81;10456518;28;19929;-61
2023/07/16 10:33:17;;;;;;;;;;;;;;;23.08;61.63;101165.34;10456701;28;19929;-58
2023/07/16 10:38:20;;;;;;;;;;;;;;;22.97;60.36;101177.13;10456250;28;20396;-61
2023/07/16 10:43:23;;;;;;;;;;;;;;;22.77;60.52;101195.22;10456306;28;19960;-61
2023/07/16 10:48:26;;;;;;;;;;;;;;;22.88;59.63;101186.94;10455056;28;19978;-61
2023/07/16 10:53:28;;;;;;;;;;;;;;;23.47;60.55;101183.50;10456159;28;19931;-60
2023/07/16 10:58:31;;;;;;;;;;;;;;;23.38;58.82;101185.31;10456207;28;19925;-61
2023/07/16 11:03:34;;;;;;;;;;;;;;;24.74;57.31;101179.50;10454731;28;19932;-61
2023/07/16 11:08:36;;;;;;;;;;;;;;;23.77;55.92;101182.06;10456496;28;20368;-60
2023/07/16 11:13:38;;;;;;;;;;;;;;;26.07;53.30;101170.59;10463631;28;19924;-61
2023/07/16 11:18:41;;;;;;;;;;;;;;;25.25;55.29;101187.19;10463266;28;19960;-61
2023/07/16 11:23:43;;;;;;;;;;;;;;;24.36;56.30;101195.31;10463112;28;20371;-60
2023/07/16 11:28:46;;;;;;;;;;;;;;;23.82;55.51;101192.28;10463079;28;19925;-61
2023/07/16 11:33:48;;;;;;;;;;;;;;;23.47;56.62;101199.53;10461552;28;20023;-61
2023/07/16 11:38:50;;;;;;;;;;;;;;;22.66;59.48;101206.97;10462431;28;19925;-60
2023/07/16 11:43:53;;;;;;;;;;;;;;;22.32;61.14;101217.59;10462780;28;19931;-60
2023/07/16 11:48:55;;;;;;;;;;;;;;;21.96;62.50;101230.94;10462225;28;19925;-60
2023/07/16 11:53:57;;;;;;;;;;;;;;;21.79;64.01;101232.59;10461894;28;19925;-60
2023/07/16 11:58:59;;;;;;;;;;;;;;;21.97;66.17;101238.78;10461713;28;19931;-61
2023/07/16 12:04:02;;;;;;;;;;;;;;;22.60;64.05;101227.13;10461630;28;19925;-60
2023/07/16 12:09:04;;;;;;;;;;;;;;;23.10;60.28;101222.94;10461144;28;20384;-60
2023/07/16 12:14:06;;;;;;;;;;;;;;;22.99;62.00;101225.84;10461272;28;19931;-60
2023/07/16 12:19:09;;;;;;;;;;;;;;;23.33;57.43;101231.25;10460219;28;19928;-60
2023/07/16 12:24:11;;;;;;;;;;;;;;;22.78;61.13;101236.94;10459303;28;19931;-61
2023/07/16 12:29:13;;;;;;;;;;;;;;;22.55;60.18;101244.63;10459488;28;19931;-60
2023/07/16 12:34:16;;;;;;;;;;;;;;;22.65;61.31;101244.53;10460333;28;20016;-61
2023/07/16 12:39:18;;;;;;;;;;;;;;;22.05;60.83;101262.81;10460185;28;19928;-60
2023/07/16 12:44:21;;;;;;;;;;;;;;;22.20;62.72;101256.97;10460497;28;19947;-60
2023/07/16 12:49:23;;;;;;;;;;;;;;;22.08;62.24;101265.19;10459768;28;19931;-60
2023/07/16 12:54:25;;;;;;;;;;;;;;;24.31;59.14;101256.50;10459471;28;20398;-61
2023/07/16 12:59:27;;;;;;;;;;;;;;;25.85;54.82;101263.44;10459311;28;20339;-61
2023/07/16 13:04:30;;;;;;;;;;;;;;;26.35;52.94;101272.00;10459160;28;19924;-58
2023/07/16 13:09:32;;;;;;;;;;;;;;;26.71;52.68;101263.31;10459103;28;19924;-61
2023/07/16 13:14:34;;;;;;;;;;;;;;;25.57;55.29;101277.34;10458745;28;20290;-61
2023/07/16 13:19:36;;;;;;;;;;;;;;;25.17;54.58;101273.78;10458561;28;19931;-61
2023/07/16 13:24:39;;;;;;;;;;;;;;;24.42;58.07;101274.88;10458550;28;19925;-61
2023/07/16 13:29:41;;;;;;;;;;;;;;;25.71;52.77;101288.34;10458360;28;19931;-61
2023/07/16 13:34:43;;;;;;;;;;;;;;;26.22;52.46;101290.56;10457794;28;19924;-61
2023/07/16 13:39:45;;;;;;;;;;;;;;;27.04;51.55;101296.03;10457945;28;19931;-61
2023/07/16 13:44:47;;;;;;;;;;;;;;;25.75;51.80;101278.91;10456432;28;20314;-61
2023/07/16 13:49:50;;;;;;;;;;;;;;;26.11;50.55;101283.78;10457638;28;19925;-59
2023/07/16 13:54:52;;;;;;;;;;;;;;;27.18;50.10;101280.09;10457238;28;20036;-60
2023/07/16 13:59:54;;;;;;;;;;;;;;;27.51;52.40;101282.41;10457142;28;20287;-60
2023/07/16 14:04:57;;;;;;;;;;;;;;;27.86;49.52;101280.75;10457366;28;20012;-60
2023/07/16 14:09:59;;;;;;;;;;;;;;;27.05;49.12;101281.59;10456849;28;19925;-60
2023/07/16 14:15:01;;;;;;;;;;;;;;;25.80;49.34;101305.22;10457040;28;19925;-59
2023/07/16 14:20:04;;;;;;;;;;;;;;;25.80;51.40;101302.53;10456720;28;19925;-60
2023/07/16 14:25:06;;;;;;;;;;;;;;;25.07;53.71;101299.13;10456692;28;20288;-59
2023/07/16 14:30:10;;;;;;;;;;;;;;;25.53;53.04;101292.09;10456344;28;19929;-61
2023/07/16 14:35:12;;;;;;;;;;;;;;;25.33;52.63;101291.69;10472085;28;19924;-60
2023/07/16 14:40:31;;;;;;;;;;;;;;;26.06;51.02;101297.72;10456359;28;19963;-61
2023/07/16 14:45:34;;;;;;;;;;;;;;;25.02;52.25;101289.75;10461666;28;19924;-60
2023/07/16 14:50:36;;;;;;;;;;;;;;;24.64;52.63;101296.66;10464228;28;19932;-61
2023/07/16 14:55:38;;;;;;;;;;;;;;;24.58;53.19;101302.69;10464158;28;19935;-60
2023/07/16 15:00:41;;;;;;;;;;;;;;;24.59;53.49;101304.38;10464112;28;19925;-61
2023/07/16 15:05:43;;;;;;;;;;;;;;;24.32;53.74;101310.84;10463829;28;19936;-61
2023/07/16 15:10:45;;;;;;;;;;;;;;;24.19;54.91;101304.16;10463508;28;20282;-61
2023/07/16 15:16:04;;;;;;;;;;;;;;;24.26;56.52;101315.88;10534942;27;20416;-60
2023/07/16 15:21:06;;;;;;;;;;;;;;;23.98;55.68;101309.13;10534660;28;19951;-60
2023/07/16 15:26:11;;;;;;;;;;;;;;;24.15;56.78;101310.00;10534405;28;19947;-60
2023/07/16 15:31:13;;;;;;;;;;;;;;;23.83;56.13;101322.28;10565887;28;20027;-61
2023/07/16 15:36:16;;;;;;;;;;;;;;;23.32;57.24;101320.38;10534162;28;19925;-60
2023/07/16 15:41:19;;;;;;;;;;;;;;;22.79;58.51;101318.66;10533900;28;20007;-60
2023/07/16 15:46:22;;;;;;;;;;;;;;;22.84;58.56;101318.22;10533504;28;20024;-59
2023/07/16 15:51:24;;;;;;;;;;;;;;;23.63;57.47;101308.31;10533273;28;20390;-59
2023/07/16 15:56:26;;;;;;;;;;;;;;;23.79;58.14;101311.06;10533419;28;20003;-59
2023/07/16 16:01:28;;;;;;;;;;;;;;;22.95;58.74;101305.44;10532973;28;19928;-60
2023/07/16 16:06:31;;;;;;;;;;;;;;;23.66;58.21;101310.69;10532787;28;19928;-60
2023/07/16 16:11:33;;;;;;;;;;;;;;;23.83;58.79;101312.44;10537146;28;19932;-60
2023/07/16 16:16:35;;;;;;;;;;;;;;;23.51;59.98;101305.09;10574492;28;20397;-60
2023/07/16 16:21:38;;;;;;;;;;;;;;;23.93;57.57;101309.63;10574172;28;20031;-60
2023/07/16 16:26:41;;;;;;;;;;;;;;;23.65;60.82;101298.28;10550111;28;19928;-60
2023/07/16 16:31:43;;;;;;;;;;;;;;;23.17;58.94;101293.41;10545666;28;19924;-60
2023/07/16 16:36:45;;;;;;;;;;;;;;;22.85;60.50;101293.19;10527836;28;20045;-60
2023/07/16 16:41:47;;;;;;;;;;;;;;;22.77;61.24;101283.28;10545423;28;20260;-60
2023/07/16 16:46:50;;;;;;;;;;;;;;;22.86;59.97;101277.00;10545160;28;19930;-59
2023/07/16 16:51:52;;;;;;;;;;;;;;;23.16;59.17;101285.56;10544827;28;19963;-59
2023/07/16 16:56:55;;;;;;;;;;;;;;;23.31;60.07;101293.81;10545053;28;19924;-59
2023/07/16 17:01:57;;;;;;;;;;;;;;;23.03;59.53;101295.81;10526821;28;19924;-59
2023/07/16 17:06:59;;;;;;;;;;;;;;;22.88;59.81;101296.41;10544374;28;20271;-59
2023/07/16 17:12:02;;;;;;;;;;;;;;;22.88;57.96;101292.88;10543999;28;20386;-60
2023/07/16 17:17:04;;;;;;;;;;;;;;;22.75;57.02;101293.31;10526187;28;19931;-60
2023/07/16 17:22:07;;;;;;;;;;;;;;;22.62;56.88;101294.53;10525862;28;19924;-60
2023/07/16 17:27:16;;;;;;;;;;;;;;;22.38;56.29;101313.00;10543729;28;19924;-59
2023/07/16 17:32:19;;;;;;;;;;;;;;;22.61;56.04;101310.69;10543274;28;19924;-60
2023/07/16 17:37:21;;;;;;;;;;;;;;;23.32;54.93;101303.53;10542117;28;20286;-60
2023/07/16 17:42:23;;;;;;;;;;;;;;;22.87;56.88;101304.56;10542893;28;19924;-60
2023/07/16 17:47:27;;;;;;;;;;;;;;;22.70;56.40;101309.78;10542895;28;19963;-60
2023/07/16 17:52:29;;;;;;;;;;;;;;;22.11;57.33;101316.53;10542474;28;19924;-60
2023/07/16 17:57:31;;;;;;;;;;;;;;;22.30;57.19;101321.75;10542627;28;20019;-60
2023/07/16 18:02:34;;;;;;;;;;;;;;;22.19;57.74;101327.28;10542205;28;19924;-59
2023/07/16 18:07:36;;;;;;;;;;;;;;;22.14;56.95;101326.91;10541972;28;19986;-59
2023/07/16 18:12:38;;;;;;;;;;;;;;;22.16;58.70;101324.94;10541665;28;19924;-59
2023/07/16 18:17:41;;;;;;;;;;;;;;;21.99;60.60;101327.44;10541700;28;20011;-59
2023/07/16 18:22:44;;;;;;;;;;;;;;;22.15;61.13;101325.91;10523781;28;20359;-60
2023/07/16 18:27:46;;;;;;;;;;;;;;;22.02;62.11;101328.94;10541212;28;19924;-60
2023/07/16 18:32:48;;;;;;;;;;;;;;;21.73;63.48;101313.13;10541278;28;20023;-60
2023/07/16 18:37:50;;;;;;;;;;;;;;;21.73;58.72;101305.97;10541084;28;20364;-60
2023/07/16 18:42:56;;;;;;;;;;;;;;;21.84;58.49;101311.09;10540700;28;19924;-61
2023/07/16 18:47:59;;;;;;;;;;;;;;;21.47;61.49;101327.16;10522772;28;20014;-60
2023/07/16 18:53:01;;;;;;;;;;;;;;;21.45;62.70;101324.59;10540405;28;19971;-60
2023/07/16 18:58:04;;;;;;;;;;;;;;;21.21;64.16;101335.72;10522885;28;20015;-60
2023/07/16 19:03:06;;;;;;;;;;;;;;;20.96;67.41;101335.38;10540294;28;19924;-60
2023/07/16 19:08:08;;;;;;;;;;;;;;;21.05;63.94;101348.81;10540071;28;19924;-61
2023/07/16 19:13:10;;;;;;;;;;;;;;;20.72;68.40;101345.63;10539693;28;20298;-60
2023/07/16 19:18:13;;;;;;;;;;;;;;;20.73;63.67;101331.34;10539925;28;20011;-60
2023/07/16 19:23:15;;;;;;;;;;;;;;;20.35;70.88;101338.31;10539969;28;19924;-60
2023/07/16 19:28:18;;;;;;;;;;;;;;;20.50;72.69;101352.03;10539729;28;19924;-60
2023/07/16 19:33:20;;;;;;;;;;;;;;;20.41;72.01;101351.91;10539758;28;19925;-60
2023/07/16 19:38:22;;;;;;;;;;;;;;;20.23;72.30;101356.22;10521696;28;19924;-60
2023/07/16 19:43:24;;;;;;;;;;;;;;;19.94;73.64;101362.31;10539397;28;19924;-60
2023/07/16 19:48:27;;;;;;;;;;;;;;;20.07;73.97;101367.38;10539287;28;20364;-60
2023/07/16 19:53:29;;;;;;;;;;;;;;;19.93;74.99;101371.25;10539066;28;20287;-60
2023/07/16 19:58:31;;;;;;;;;;;;;;;19.94;75.37;101364.97;10540251;28;19928;-60
2023/07/16 20:03:33;;;;;;;;;;;;;;;19.90;74.28;101374.16;10546806;28;19947;-60
2023/07/16 20:08:36;;;;;;;;;;;;;;;19.64;76.53;101381.75;10546688;28;19924;-59
2023/07/16 20:13:38;;;;;;;;;;;;;;;19.57;78.08;101380.56;10546373;28;19930;-59
2023/07/16 20:18:40;;;;;;;;;;;;;;;19.56;79.62;101385.06;10546311;28;19924;-59
2023/07/16 20:23:43;;;;;;;;;;;;;;;19.44;79.53;101381.63;10546323;28;20035;-60
2023/07/16 20:28:45;;;;;;;;;;;;;;;19.62;79.15;101379.22;10545962;28;19951;-60
2023/07/16 20:33:47;;;;;;;;;;;;;;;19.67;79.69;101376.19;10546219;28;19924;-59
2023/07/16 20:38:50;;;;;;;;;;;;;;;19.53;80.36;101384.47;10545662;28;19931;-59
2023/07/16 20:43:52;;;;;;;;;;;;;;;19.13;86.21;101380.75;10545360;28;20298;-59
2023/07/16 20:48:54;;;;;;;;;;;;;;;19.33;81.98;101384.38;10545178;28;20370;-59
2023/07/16 20:53:56;;;;;;;;;;;;;;;19.08;85.84;101382.94;10526973;28;20393;-60
2023/07/16 20:58:59;;;;;;;;;;;;;;;19.16;85.21;101377.84;10544762;28;19928;-59
2023/07/16 21:04:03;;;;;;;;;;;;;;;18.89;86.84;101386.31;10544778;28;19928;-60
2023/07/16 21:09:05;;;;;;;;;;;;;;;18.95;85.72;101385.81;10544228;28;20397;-59
2023/07/16 21:14:07;;;;;;;;;;;;;;;18.71;88.47;101386.00;10543986;28;19930;-60
2023/07/16 21:19:10;;;;;;;;;;;;;;;18.73;89.70;101387.56;10543764;28;20346;-60
2023/07/16 21:24:13;;;;;;;;;;;;;;;18.71;87.70;101384.19;10543967;28;20018;-59
2023/07/16 21:29:15;;;;;;;;;;;;;;;18.53;92.09;101383.88;10543557;28;20264;-59
2023/07/16 21:34:17;;;;;;;;;;;;;;;18.50;91.80;101392.09;10543219;28;20299;-59
2023/07/16 21:39:19;;;;;;;;;;;;;;;18.47;91.78;101387.03;10543267;28;19930;-58
2023/07/16 21:44:21;;;;;;;;;;;;;;;18.23;93.44;101392.53;10481304;22;20459;-60
2023/07/16 21:49:24;;;;;;;;;;;;;;;18.24;91.79;101388.91;10459709;28;19925;-60
2023/07/16 21:54:26;;;;;;;;;;;;;;;18.01;92.17;101388.09;10459247;28;19925;-60
2023/07/16 21:59:28;;;;;;;;;;;;;;;18.00;93.76;101384.63;10441735;28;19929;-60
2023/07/16 22:04:30;;;;;;;;;;;;;;;17.80;93.19;101382.66;10459039;28;20303;-59
2023/07/16 22:09:33;;;;;;;;;;;;;;;17.72;93.59;101388.56;10441343;28;19936;-59
2023/07/16 22:14:35;;;;;;;;;;;;;;;17.44;97.18;101400.47;10458460;28;20371;-60
2023/07/16 22:19:38;;;;;;;;;;;;;;;17.39;99.28;101406.09;10458260;28;20278;-59
2023/07/16 22:24:40;;;;;;;;;;;;;;;17.46;94.70;101414.41;10457631;28;19971;-59
2023/07/16 22:29:43;;;;;;;;;;;;;;;17.42;98.51;101410.31;10457922;28;19929;-59
2023/07/16 22:34:45;;;;;;;;;;;;;;;17.51;98.08;101414.91;10457907;28;19931;-59
2023/07/16 22:39:47;;;;;;;;;;;;;;;17.46;98.02;101417.06;10457612;28;19924;-59
2023/07/16 22:44:50;;;;;;;;;;;;;;;17.19;98.02;101407.63;10457324;28;19932;-59
2023/07/16 22:49:52;;;;;;;;;;;;;;;17.53;97.95;101414.78;10456335;28;19924;-59
2023/07/16 22:54:54;;;;;;;;;;;;;;;17.66;96.81;101422.63;10457178;28;19925;-60
2023/07/16 22:59:56;;;;;;;;;;;;;;;17.91;88.01;101429.53;10457258;28;19925;-59
2023/07/16 23:04:59;;;;;;;;;;;;;;;18.37;83.92;101434.69;10456899;28;20279;-59
2023/07/16 23:10:01;;;;;;;;;;;;;;;18.43;85.43;101440.47;10456765;28;20402;-59
2023/07/16 23:15:04;;;;;;;;;;;;;;;18.55;82.97;101437.63;10456712;28;20011;-59
2023/07/16 23:20:07;;;;;;;;;;;;;;;18.38;84.30;101439.00;10456655;28;19929;-59
2023/07/16 23:25:09;;;;;;;;;;;;;;;18.78;81.90;101428.75;10456733;28;19931;-59
2023/07/16 23:30:12;;;;;;;;;;;;;;;18.68;82.82;101426.88;10438836;28;19967;-58
2023/07/16 23:35:14;;;;;;;;;;;;;;;18.53;85.03;101417.53;10458991;28;19932;-59
2023/07/16 23:40:18;;;;;;;;;;;;;;;18.15;96.61;101416.97;10464346;28;20391;-59
2023/07/16 23:45:20;;;;;;;;;;;;;;;18.20;93.95;101408.66;10464437;28;20283;-58
2023/07/16 23:50:22;;;;;;;;;;;;;;;18.07;93.43;101397.38;10464384;28;19929;-59
2023/07/16 23:55:25;;;;;;;;;;;;;;;18.10;98.08;101408.56;10446307;28;19931;-58
